Dresden, Missouri
Current Conditions -  °F | °C
As of 7:53 PM on Sunday 21 Dec 2014 (Local Time) from KDMO Reporting Station
Overcast Overcast  
Wind Chill: 36°   Ceiling: 4800
Heat Index: 43°   Visibility: 10mi
Dew Point: 36°   Wind: 14mph
Humidity: 76%   Direction: 150°SSE
Pressure: 29.87"   Gusts: NA
Location:  38.6763°N, 93.2612°W
Report Text: KDMO 220153Z AUTO 15012KT 10SM OVC048 06/02 A2987 RMK AO2 SLP120 T00610022
Loading
Personal Weather Stations






























Interactive Weather Map New forecast layout! Learn more

10-Day Weather Forecast

Advertisements
Track Severe Weather on mobile